Time;durP1;ratioP1;P1;durP2;ratioP2;P2;SDS_P1;SDS_P2;PMS_P1;PMS_P2;Temp;Humidity;BMP_temperature;BMP_pressure;BME280_temperature;BME280_humidity;BME280_pressure;Samples;Min_cycle;Max_cycle;Signal;HPM_P1;HPM_P2
2023/05/31 00:01:40;;;;;;;16.70;9.50;;;;;;;15.54;53.86;99386.31;107070;1261;60468;-40
2023/05/31 00:04:08;;;;;;;18.70;10.40;;;;;;;15.53;53.99;99384.91;107078;1258;70864;-40
2023/05/31 00:06:36;;;;;;;18.70;10.10;;;;;;;15.52;53.95;99385.77;107058;1260;67616;-40
2023/05/31 00:09:03;;;;;;;15.60;10.80;;;;;;;15.50;53.60;99390.98;107004;1260;72696;-40
2023/05/31 00:11:31;;;;;;;17.70;10.70;;;;;;;15.50;53.76;99390.35;107038;1263;60147;-40
2023/05/31 00:13:59;;;;;;;15.80;10.50;;;;;;;15.50;53.88;99387.80;107056;1257;60039;-40
2023/05/31 00:16:26;;;;;;;14.10;9.70;;;;;;;15.50;54.20;99390.67;106987;1260;73092;-40
2023/05/31 00:19:14;;;;;;;18.00;10.00;;;;;;;15.51;54.54;99393.19;107042;1257;67887;-40
2023/05/31 00:21:44;;;;;;;18.20;11.30;;;;;;;15.51;54.98;99389.67;107174;1257;72708;-40
2023/05/31 00:24:12;;;;;;;;;;;;;;;15.52;55.46;99389.20;107114;1260;59712;-40
2023/05/31 00:26:39;;;;;;;17.40;11.10;;;;;;;15.46;55.45;99394.25;107070;1259;59639;-40
2023/05/31 00:29:07;;;;;;;15.80;11.80;;;;;;;15.41;55.45;99393.41;107046;1257;73036;-40
2023/05/31 00:31:35;;;;;;;16.50;11.50;;;;;;;15.42;55.44;99391.76;107214;1257;67606;-40
2023/05/31 00:34:02;;;;;;;16.20;11.60;;;;;;;15.41;54.99;99396.67;107205;1257;72713;-40
2023/05/31 00:36:30;;;;;;;16.80;11.60;;;;;;;15.40;54.99;99398.31;107210;1258;60445;-40
2023/05/31 00:38:58;;;;;;;16.50;12.00;;;;;;;15.38;54.97;99392.00;107254;1257;60365;-40
2023/05/31 00:41:25;;;;;;;17.10;11.70;;;;;;;15.36;54.85;99393.48;107184;1257;73052;-40
2023/05/31 00:43:53;;;;;;;15.90;11.50;;;;;;;15.35;54.82;99398.23;107243;1256;67592;-40
2023/05/31 00:46:24;;;;;;;15.70;12.00;;;;;;;15.33;54.87;99400.58;107258;1258;72725;-40
2023/05/31 00:48:53;;;;;;;21.30;12.80;;;;;;;15.32;54.88;99407.52;107264;1256;59586;-40
2023/05/31 00:51:20;;;;;;;18.90;12.50;;;;;;;15.29;54.56;99414.86;107256;1257;60125;-40
2023/05/31 00:53:50;;;;;;;17.50;12.60;;;;;;;15.25;54.44;99407.91;107276;1257;73051;-40
2023/05/31 00:56:18;;;;;;;17.20;12.90;;;;;;;15.20;54.05;99403.14;107289;1256;68033;-40
2023/05/31 00:58:47;;;;;;;21.00;13.30;;;;;;;15.13;54.04;99406.96;107259;1260;71381;-40
2023/05/31 01:01:15;;;;;;;19.80;12.80;;;;;;;15.08;53.95;99403.91;107225;1260;60044;-40
2023/05/31 01:03:43;;;;;;;21.30;13.40;;;;;;;15.04;53.92;99401.33;107143;1256;59465;-40
2023/05/31 01:06:11;;;;;;;20.60;12.40;;;;;;;14.99;54.01;99405.23;107122;1257;71852;-40
2023/05/31 01:08:39;;;;;;;15.80;11.80;;;;;;;14.96;54.00;99402.95;107130;1256;67919;-40
2023/05/31 01:11:18;;;;;;;16.80;12.80;;;;;;;14.94;53.89;99408.80;107105;1257;72652;-40
2023/05/31 01:13:52;;;;;;;21.40;12.30;;;;;;;14.92;53.91;99410.73;107220;1257;60211;-40
2023/05/31 01:16:31;;;;;;;20.30;11.80;;;;;;;14.89;54.08;99410.98;107246;1257;59294;-40
2023/05/31 01:19:03;;;;;;;16.10;12.00;;;;;;;14.86;54.10;99416.59;107146;1257;73154;-40
2023/05/31 01:22:14;;;;;;;17.30;12.00;;;;;;;14.82;54.13;99423.98;107253;1257;66654;-40
2023/05/31 01:25:03;;;;;;;15.30;11.60;;;;;;;14.77;54.10;99431.52;107211;1257;72698;-39
2023/05/31 01:27:31;;;;;;;17.40;11.70;;;;;;;14.70;54.26;99437.36;107262;1257;59631;-39
2023/05/31 01:29:59;;;;;;;15.80;11.10;;;;;;;14.65;54.43;99441.55;107254;1257;60524;-41
2023/05/31 01:32:27;;;;;;;18.10;11.10;;;;;;;14.61;54.62;99440.29;107237;1257;71848;-40
2023/05/31 01:34:54;;;;;;;17.20;11.30;;;;;;;14.58;54.69;99439.95;107194;1256;67559;-39
2023/05/31 01:37:22;;;;;;;18.70;11.30;;;;;;;14.56;54.91;99449.39;107238;1257;71941;-40
2023/05/31 01:39:51;;;;;;;15.30;10.60;;;;;;;14.52;55.06;99443.14;107177;1258;60240;-40
2023/05/31 01:42:20;;;;;;;15.50;11.30;;;;;;;14.48;55.11;99447.01;107260;1256;60019;-40
2023/05/31 01:44:48;;;;;;;17.10;11.00;;;;;;;14.43;55.31;99447.77;107196;1257;73103;-39
2023/05/31 01:47:16;;;;;;;16.70;11.30;;;;;;;14.40;55.51;99451.25;107174;1256;67624;-39
2023/05/31 01:49:44;;;;;;;16.30;10.80;;;;;;;14.35;55.60;99450.74;107158;1257;71384;-40
2023/05/31 01:52:13;;;;;;;17.90;11.20;;;;;;;14.30;55.66;99447.98;107112;1257;59708;-39
2023/05/31 01:54:41;;;;;;;19.50;10.50;;;;;;;14.25;56.03;99446.63;107251;1258;60029;-40
2023/05/31 01:57:09;;;;;;;16.20;11.10;;;;;;;14.18;56.14;99447.77;107218;1257;73064;-40
2023/05/31 01:59:38;;;;;;;14.20;10.80;;;;;;;14.13;56.18;99441.59;107280;1256;67145;-40
2023/05/31 02:02:07;;;;;;;17.50;10.50;;;;;;;14.09;56.32;99439.22;107240;1257;70388;-40
2023/05/31 02:04:35;;;;;;;21.50;10.40;;;;;;;14.07;56.46;99438.35;107166;1263;60450;-39
2023/05/31 02:07:04;;;;;;;17.20;10.90;;;;;;;14.06;56.53;99437.56;107258;1257;60268;-39
2023/05/31 02:09:31;;;;;;;17.50;10.40;;;;;;;14.05;56.61;99435.07;107263;1258;72750;-40
2023/05/31 02:11:59;;;;;;;18.70;10.50;;;;;;;14.05;56.62;99443.23;107262;1256;65702;-39
2023/05/31 02:14:26;;;;;;;16.40;10.00;;;;;;;14.01;56.69;99456.92;107197;1257;72778;-39
2023/05/31 02:16:55;;;;;;;17.00;10.30;;;;;;;13.96;56.87;99449.96;107245;1256;60594;-40
2023/05/31 02:19:25;;;;;;;18.60;11.00;;;;;;;13.91;57.05;99457.55;107236;1257;60043;-39
2023/05/31 02:21:53;;;;;;;15.40;10.10;;;;;;;13.86;57.17;99472.16;107235;1262;72509;-39
2023/05/31 02:24:20;;;;;;;19.60;10.80;;;;;;;13.80;57.46;99473.60;107373;1256;68092;-40
2023/05/31 02:26:48;;;;;;;18.80;10.40;;;;;;;13.75;57.70;99481.04;107229;1257;71940;-40
2023/05/31 02:29:16;;;;;;;14.50;9.50;;;;;;;13.71;57.89;99481.23;107345;1256;60292;-40
2023/05/31 02:31:46;;;;;;;18.80;9.70;;;;;;;13.66;58.04;99478.46;107384;1257;60375;-39
2023/05/31 02:34:15;;;;;;;16.20;10.00;;;;;;;13.61;58.37;99477.24;107222;1257;73894;-39
2023/05/31 02:36:44;;;;;;;14.80;10.50;;;;;;;13.56;58.41;99473.23;107252;1256;66397;-40
2023/05/31 02:39:11;;;;;;;13.60;9.50;;;;;;;13.52;58.61;99477.26;107270;1257;72796;-40
2023/05/31 02:41:41;;;;;;;17.80;10.20;;;;;;;13.52;58.79;99480.61;107266;1257;60318;-39
2023/05/31 02:44:08;;;;;;;17.00;9.60;;;;;;;13.52;58.76;99483.56;107215;1256;60299;-40
2023/05/31 02:46:38;;;;;;;14.80;9.20;;;;;;;13.52;59.08;99480.14;107168;1257;74328;-40
2023/05/31 02:49:06;;;;;;;14.60;9.50;;;;;;;13.56;59.25;99479.55;107299;1257;67304;-40
2023/05/31 02:51:35;;;;;;;18.70;9.10;;;;;;;13.61;59.40;99481.62;107262;1257;71403;-40
2023/05/31 02:54:21;;;;;;;14.40;9.50;;;;;;;13.66;59.67;99480.65;107380;1257;60545;-39
2023/05/31 02:56:50;;;;;;;16.70;9.40;;;;;;;13.70;59.36;99479.35;107308;1256;60385;-39
2023/05/31 02:59:20;;;;;;;13.20;9.20;;;;;;;13.76;59.36;99485.41;107264;1256;74123;-41
2023/05/31 03:02:08;;;;;;;15.30;8.90;;;;;;;13.83;59.39;99483.98;107364;1257;66305;-39
2023/05/31 03:04:41;;;;;;;18.00;9.50;;;;;;;13.88;59.46;99498.50;107281;1260;72701;-39
2023/05/31 03:07:09;;;;;;;15.30;10.20;;;;;;;13.89;59.34;99495.86;107263;1257;59333;-40
2023/05/31 03:09:37;;;;;;;16.60;9.50;;;;;;;13.87;59.26;99497.56;107179;1257;60377;-40
2023/05/31 03:12:06;;;;;;;18.40;9.20;;;;;;;13.85;59.29;99494.35;107241;1256;72595;-39
2023/05/31 03:14:34;;;;;;;15.00;9.00;;;;;;;13.83;59.43;99498.46;107258;1257;67931;-39
2023/05/31 03:17:03;;;;;;;17.70;8.80;;;;;;;13.82;59.58;99499.00;107340;1257;72690;-39
2023/05/31 03:19:31;;;;;;;15.00;8.30;;;;;;;13.81;59.73;99501.63;107285;1257;60482;-39
2023/05/31 03:22:00;;;;;;;18.20;8.40;;;;;;;13.79;60.06;99501.15;107365;1260;59575;-39
2023/05/31 03:24:30;;;;;;;13.70;8.00;;;;;;;13.81;60.35;99499.77;107149;1256;73833;-39
2023/05/31 03:26:58;;;;;;;12.30;7.90;;;;;;;13.85;60.72;99499.27;107360;1260;67627;-39
2023/05/31 03:29:26;;;;;;;14.90;8.00;;;;;;;13.92;60.87;99500.01;107270;1257;72688;-39
2023/05/31 03:31:54;;;;;;;19.70;8.50;;;;;;;14.00;61.15;99502.88;107219;1256;60632;-39
2023/05/31 03:34:22;;;;;;;11.80;8.00;;;;;;;14.09;61.39;99505.50;107223;1256;59793;-40
2023/05/31 03:36:50;;;;;;;14.90;7.70;;;;;;;14.18;61.13;99509.77;107245;1257;72560;-39
2023/05/31 03:39:48;;;;;;;12.90;7.90;;;;;;;14.26;60.96;99512.86;107468;1253;66756;-39
2023/05/31 03:42:22;;;;;;;9.70;7.00;;;;;;;14.31;61.10;99514.06;107575;1254;71435;-40
2023/05/31 03:44:50;;;;;;;13.00;6.90;;;;;;;14.38;61.35;99515.37;107568;1253;60238;-39
2023/05/31 03:47:18;;;;;;;12.80;7.00;;;;;;;14.45;61.33;99520.17;107505;1254;60291;-39
2023/05/31 03:49:46;;;;;;;14.80;6.60;;;;;;;14.53;61.27;99520.77;107519;1254;73837;-39
2023/05/31 03:52:14;;;;;;;14.80;6.20;;;;;;;14.64;61.47;99517.63;107713;1254;65892;-40
2023/05/31 03:54:42;;;;;;;16.20;6.90;;;;;;;14.74;61.61;99523.45;107608;1253;72695;-40
2023/05/31 03:57:10;;;;;;;14.10;6.10;;;;;;;14.86;61.29;99529.66;107608;1254;60077;-39
2023/05/31 03:59:37;;;;;;;12.40;6.50;;;;;;;14.97;61.31;99533.83;107588;1254;60482;-40
2023/05/31 04:02:05;;;;;;;10.00;6.00;;;;;;;15.05;61.21;99538.63;107510;1252;73872;-39
2023/05/31 04:04:33;;;;;;;9.80;5.50;;;;;;;15.12;61.22;99541.92;107685;1254;66764;-39
2023/05/31 04:07:01;;;;;;;12.80;5.50;;;;;;;15.21;60.72;99543.30;107657;1253;71394;-39
2023/05/31 04:09:29;;;;;;;9.00;5.40;;;;;;;15.29;60.40;99542.29;107624;1252;60430;-39
2023/05/31 04:11:57;;;;;;;9.80;4.40;;;;;;;15.35;60.28;99547.61;107590;1254;60076;-39
2023/05/31 04:14:25;;;;;;;8.80;5.40;;;;;;;15.43;60.52;99546.47;107570;1253;71584;-39
2023/05/31 04:16:53;;;;;;;9.90;5.40;;;;;;;15.55;60.80;99548.78;107525;1252;66579;-40
2023/05/31 04:19:21;;;;;;;10.50;5.20;;;;;;;15.64;60.18;99546.85;107516;1253;71675;-40
2023/05/31 04:21:48;;;;;;;11.90;6.30;;;;;;;15.70;59.84;99549.67;107580;1254;60422;-40
2023/05/31 04:24:17;;;;;;;8.60;4.90;;;;;;;15.74;59.79;99553.89;107607;1254;60355;-39
2023/05/31 04:26:46;;;;;;;8.30;4.50;;;;;;;15.78;59.71;99556.54;107717;1252;73898;-40
2023/05/31 04:29:15;;;;;;;6.70;4.80;;;;;;;15.84;59.69;99560.46;107590;1254;66804;-40
2023/05/31 04:31:43;;;;;;;8.30;5.00;;;;;;;15.90;59.38;99567.27;107649;1254;72653;-40
2023/05/31 04:34:17;;;;;;;13.10;4.50;;;;;;;15.94;59.23;99568.59;107612;1253;60235;-40
2023/05/31 04:36:48;;;;;;;10.30;4.50;;;;;;;16.01;59.02;99574.30;107624;1254;60312;-39
2023/05/31 04:39:21;;;;;;;11.30;4.90;;;;;;;16.06;58.81;99573.90;107505;1252;73871;-39
2023/05/31 04:41:51;;;;;;;8.10;4.50;;;;;;;16.10;58.78;99568.83;107538;1254;67595;-40
2023/05/31 04:44:18;;;;;;;6.20;4.40;;;;;;;16.18;58.87;99573.83;107582;1254;71380;-40
2023/05/31 04:46:48;;;;;;;8.60;4.00;;;;;;;16.25;59.01;99577.42;107579;1253;60413;-39
2023/05/31 04:49:16;;;;;;;13.00;4.20;;;;;;;16.36;58.58;99579.52;107713;1253;60310;-39
2023/05/31 04:51:44;;;;;;;7.20;4.40;;;;;;;16.48;58.61;99582.16;107579;1254;72612;-40
2023/05/31 04:54:12;;;;;;;8.00;4.20;;;;;;;16.58;58.05;99582.40;107553;1254;67111;-40
2023/05/31 04:56:40;;;;;;;8.20;5.00;;;;;;;16.65;57.73;99579.82;107591;1254;72980;-40
2023/05/31 04:59:08;;;;;;;11.60;4.80;;;;;;;16.71;57.42;99582.78;107566;1253;60075;-40
2023/05/31 05:01:37;;;;;;;10.30;4.40;;;;;;;16.75;57.34;99584.64;107569;1252;59608;-40
2023/05/31 05:04:09;;;;;;;7.30;4.70;;;;;;;16.79;57.60;99585.17;107535;1253;73935;-40
2023/05/31 05:06:40;;;;;;;5.30;4.10;;;;;;;16.83;57.55;99580.86;107566;1254;66263;-40
2023/05/31 05:09:09;;;;;;;;;;;;;;;16.90;57.53;99583.02;107510;1254;73840;-40
2023/05/31 05:11:37;;;;;;;7.60;3.90;;;;;;;16.91;57.22;99576.61;107669;1254;60344;-40
2023/05/31 05:14:05;;;;;;;11.70;4.00;;;;;;;16.93;57.20;99576.77;107563;1252;59665;-40
2023/05/31 05:16:32;;;;;;;7.00;4.40;;;;;;;17.01;56.76;99573.45;107593;1252;72557;-40
2023/05/31 05:19:00;;;;;;;8.80;4.00;;;;;;;17.06;56.46;99570.93;107582;1254;66620;-40
2023/05/31 05:21:31;;;;;;;11.80;4.40;;;;;;;17.10;56.23;99568.02;107562;1254;72787;-40
2023/05/31 05:23:59;;;;;;;6.90;4.40;;;;;;;17.17;56.65;99574.33;107576;1253;60175;-40
2023/05/31 05:26:27;;;;;;;8.30;3.80;;;;;;;17.24;56.86;99578.52;107622;1253;59586;-40
2023/05/31 05:28:55;;;;;;;8.00;4.00;;;;;;;17.35;56.53;99578.00;107519;1255;71627;-40
2023/05/31 05:31:23;;;;;;;6.60;4.10;;;;;;;17.43;55.91;99578.74;107451;1254;67174;-40
2023/05/31 05:33:54;;;;;;;7.10;4.30;;;;;;;17.51;55.59;99578.77;107553;1253;72452;-41
2023/05/31 05:36:22;;;;;;;7.10;4.30;;;;;;;17.59;55.29;99584.86;107562;1253;60447;-40
2023/05/31 05:38:52;;;;;;;10.40;4.10;;;;;;;17.67;55.26;99588.27;107616;1253;60427;-40
2023/05/31 05:41:19;;;;;;;6.30;3.60;;;;;;;17.75;54.73;99592.75;107487;1254;72129;-40
2023/05/31 05:43:47;;;;;;;7.90;4.20;;;;;;;17.82;54.22;99593.58;107460;1253;67599;-40
2023/05/31 05:46:16;;;;;;;6.50;4.00;;;;;;;17.89;54.27;99594.55;107437;1254;71361;-40
2023/05/31 05:48:44;;;;;;;9.20;3.80;;;;;;;17.93;53.34;99588.88;107424;1253;60439;-40
2023/05/31 05:51:12;;;;;;;8.40;3.90;;;;;;;17.97;53.37;99588.70;107449;1253;60449;-40
2023/05/31 05:53:40;;;;;;;8.90;3.80;;;;;;;18.03;53.32;99583.55;107377;1253;72581;-39
2023/05/31 05:56:07;;;;;;;4.50;3.70;;;;;;;18.09;53.84;99583.89;107503;1253;67490;-40
2023/05/31 05:58:42;;;;;;;6.10;3.60;;;;;;;18.20;53.57;99587.33;107452;1254;70470;-40
2023/05/31 06:01:29;;;;;;;11.50;4.00;;;;;;;18.34;53.31;99593.09;107458;1255;60442;-39
2023/05/31 06:03:57;;;;;;;10.40;3.90;;;;;;;18.44;51.83;99588.38;107478;1254;60292;-39
2023/05/31 06:06:24;;;;;;;6.20;3.80;;;;;;;18.52;51.14;99587.84;107439;1253;73937;-40
2023/05/31 06:08:52;;;;;;;6.20;3.60;;;;;;;18.59;51.17;99587.08;107409;1258;66605;-40
2023/05/31 06:11:20;;;;;;;9.30;3.70;;;;;;;18.66;51.39;99586.23;107469;1254;72522;-40
2023/05/31 06:13:49;;;;;;;7.30;3.60;;;;;;;18.76;51.17;99585.27;107499;1253;60416;-39
2023/05/31 06:16:20;;;;;;;5.10;3.20;;;;;;;18.83;50.31;99583.69;107521;1253;60356;-40
2023/05/31 06:18:48;;;;;;;6.90;3.70;;;;;;;18.89;49.74;99587.16;107464;1253;72555;-40
2023/05/31 06:21:16;;;;;;;5.60;3.30;;;;;;;18.95;50.08;99591.95;107434;1253;66324;-39
2023/05/31 06:23:44;;;;;;;5.70;3.00;;;;;;;19.03;49.78;99591.78;107470;1253;72683;-39
2023/05/31 06:26:12;;;;;;;7.50;3.50;;;;;;;19.12;49.32;99597.79;107434;1253;60052;-39
2023/05/31 06:28:40;;;;;;;9.00;3.20;;;;;;;19.21;49.69;99596.66;107457;1258;59575;-39
2023/05/31 06:31:16;;;;;;;4.90;3.30;;;;;;;19.32;48.97;99598.19;107474;1253;73800;-39
2023/05/31 06:33:44;;;;;;;6.80;3.30;;;;;;;19.42;49.04;99601.75;107469;1254;66651;-39
2023/05/31 06:36:12;;;;;;;6.00;3.50;;;;;;;19.54;48.53;99603.81;107437;1253;71382;-40
2023/05/31 06:38:39;;;;;;;4.10;3.00;;;;;;;19.64;47.90;99601.33;107453;1253;60275;-40
2023/05/31 06:41:07;;;;;;;5.40;3.00;;;;;;;19.73;48.00;99602.84;107476;1253;60289;-39
2023/05/31 06:43:35;;;;;;;5.60;2.90;;;;;;;19.83;47.53;99600.81;107477;1253;73869;-39
2023/05/31 06:46:22;;;;;;;6.00;3.20;;;;;;;19.94;46.19;99601.02;107478;1258;65585;-40
2023/05/31 06:49:28;;;;;;;5.50;2.80;;;;;;;20.01;46.82;99605.96;106904;1260;73069;-40
2023/05/31 06:52:30;;;;;;;4.80;3.30;;;;;;;20.11;46.76;99607.85;106874;1261;60664;-40
2023/05/31 06:55:26;;;;;;;6.20;3.30;;;;;;;20.22;47.48;99614.19;107394;1258;60401;-39
2023/05/31 06:57:54;;;;;;;7.70;3.60;;;;;;;20.33;46.43;99612.07;107457;1253;72642;-40
2023/05/31 07:00:21;;;;;;;8.90;3.10;;;;;;;20.44;46.17;99616.16;107487;1253;67631;-39
2023/05/31 07:02:49;;;;;;;7.30;3.20;;;;;;;20.51;45.67;99613.83;107494;1253;72661;-39
2023/05/31 07:05:18;;;;;;;6.40;2.80;;;;;;;20.55;45.14;99612.02;107487;1253;60145;-40
2023/05/31 07:07:47;;;;;;;4.40;2.80;;;;;;;20.58;45.13;99616.53;107387;1258;60503;-40
2023/05/31 07:10:15;;;;;;;6.60;4.90;;;;;;;20.64;44.97;99611.31;107512;1253;73295;-40
2023/05/31 07:12:43;;;;;;;6.10;3.60;;;;;;;20.74;44.67;99614.20;107443;1253;67717;-40
2023/05/31 07:15:10;;;;;;;5.20;3.20;;;;;;;20.82;43.71;99611.38;107403;1253;72692;-39
2023/05/31 07:17:38;;;;;;;4.70;3.30;;;;;;;20.88;43.82;99608.66;107441;1253;60237;-39
2023/05/31 07:20:08;;;;;;;4.30;3.00;;;;;;;20.93;43.87;99605.27;107473;1253;60323;-40
2023/05/31 07:22:35;;;;;;;4.60;3.00;;;;;;;21.01;43.38;99605.73;107452;1253;72550;-39
2023/05/31 07:25:04;;;;;;;7.80;3.00;;;;;;;21.08;43.17;99603.52;107451;1253;66847;-39
2023/05/31 07:27:32;;;;;;;5.10;3.10;;;;;;;21.17;42.56;99598.80;107383;1254;72653;-40
2023/05/31 07:30:00;;;;;;;6.30;2.80;;;;;;;21.30;42.88;99599.73;107459;1254;60504;-39
2023/05/31 07:32:28;;;;;;;4.80;3.00;;;;;;;21.43;43.32;99598.13;107472;1253;60150;-40
2023/05/31 07:34:55;;;;;;;4.90;2.90;;;;;;;21.52;43.33;99595.01;107458;1253;73871;-39
2023/05/31 07:37:30;;;;;;;6.60;3.20;;;;;;;21.60;43.28;99599.02;107439;1253;68063;-39
2023/05/31 07:39:59;;;;;;;8.70;3.10;;;;;;;21.67;42.54;99597.13;107443;1253;72685;-39
2023/05/31 07:42:28;;;;;;;10.40;3.10;;;;;;;21.74;42.66;99599.10;107443;1254;60560;-40
2023/05/31 07:44:56;;;;;;;6.40;3.10;;;;;;;21.83;42.68;99606.70;107464;1258;60503;-40
2023/05/31 07:47:24;;;;;;;8.70;3.30;;;;;;;21.92;41.89;99606.97;107507;1257;73840;-39
2023/05/31 07:49:52;;;;;;;3.90;3.00;;;;;;;21.96;41.59;99607.06;107448;1253;67559;-39
2023/05/31 07:52:21;;;;;;;4.00;2.60;;;;;;;21.97;41.38;99610.65;107410;1253;71462;-39
2023/05/31 07:54:49;;;;;;;3.60;2.70;;;;;;;22.00;41.13;99612.55;107472;1253;60990;-41
2023/05/31 07:57:17;;;;;;;4.60;2.60;;;;;;;22.05;40.82;99615.14;107511;1253;60432;-39
2023/05/31 07:59:46;;;;;;;5.10;3.00;;;;;;;22.08;40.61;99611.83;107436;1253;73882;-40
2023/05/31 08:02:14;;;;;;;8.90;3.30;;;;;;;22.13;40.97;99611.70;107442;1253;67657;-40
2023/05/31 08:04:43;;;;;;;5.70;3.00;;;;;;;22.21;40.60;99606.77;107443;1253;72665;-41
2023/05/31 08:07:10;;;;;;;5.10;2.80;;;;;;;22.31;40.61;99605.04;107432;1253;60532;-40
2023/05/31 08:09:38;;;;;;;6.00;2.70;;;;;;;22.43;40.24;99603.20;107420;1253;60723;-40
2023/05/31 08:12:07;;;;;;;6.80;2.60;;;;;;;22.58;39.63;99607.65;107523;1257;73933;-40
2023/05/31 08:14:35;;;;;;;4.50;2.60;;;;;;;22.72;38.75;99607.46;107461;1258;67920;-40
2023/05/31 08:17:03;;;;;;;4.40;2.80;;;;;;;22.80;38.31;99609.61;107424;1253;72810;-40
2023/05/31 08:19:31;;;;;;;4.80;2.70;;;;;;;22.86;36.60;99616.34;107427;1253;60538;-41
2023/05/31 08:21:58;;;;;;;5.70;2.50;;;;;;;22.87;36.55;99607.30;107407;1253;60492;-38
2023/05/31 08:24:26;;;;;;;5.80;2.70;;;;;;;22.93;36.70;99609.50;107446;1253;73875;-40
2023/05/31 08:26:56;;;;;;;6.70;2.70;;;;;;;23.01;35.50;99605.58;107324;1260;65967;-40
2023/05/31 08:29:23;;;;;;;4.20;2.30;;;;;;;23.05;34.66;99603.25;107482;1254;72648;-40
2023/05/31 08:31:51;;;;;;;6.20;2.60;;;;;;;23.06;32.94;99605.28;107462;1253;60359;-39
2023/05/31 08:34:19;;;;;;;6.00;2.70;;;;;;;23.04;33.09;99604.00;107428;1253;60317;-40
2023/05/31 08:36:47;;;;;;;6.90;2.80;;;;;;;23.04;33.06;99602.82;107439;1253;73964;-40
2023/05/31 08:39:15;;;;;;;3.60;2.00;;;;;;;23.05;33.42;99603.64;107476;1253;67580;-40
2023/05/31 08:41:51;;;;;;;4.80;2.60;;;;;;;23.14;34.84;99611.86;107536;1253;72704;-40
2023/05/31 08:44:19;;;;;;;7.20;2.30;;;;;;;23.26;34.63;99610.23;107414;1253;60316;-40
2023/05/31 08:46:47;;;;;;;6.40;2.60;;;;;;;23.38;34.44;99607.45;107444;1253;60276;-40
2023/05/31 08:49:18;;;;;;;5.10;2.50;;;;;;;23.50;34.48;99613.36;107405;1258;73879;-40
2023/05/31 08:51:45;;;;;;;6.20;2.50;;;;;;;23.61;33.99;99611.45;107302;1253;67604;-40
2023/05/31 08:54:13;;;;;;;6.40;2.50;;;;;;;23.67;32.92;99605.32;107328;1259;71459;-40
2023/05/31 08:56:41;;;;;;;3.90;2.50;;;;;;;23.66;32.90;99607.24;107378;1256;60545;-40
2023/05/31 08:59:17;;;;;;;6.00;2.70;;;;;;;23.65;32.54;99609.17;107386;1253;60088;-40
2023/05/31 09:01:45;;;;;;;4.40;2.30;;;;;;;23.71;32.39;99609.70;107416;1253;73863;-40
2023/05/31 09:04:13;;;;;;;5.90;2.60;;;;;;;23.77;32.23;99608.27;107481;1253;67763;-40
2023/05/31 09:06:41;;;;;;;4.70;2.60;;;;;;;23.83;32.64;99606.73;107409;1253;72713;-39
2023/05/31 09:09:09;;;;;;;4.60;2.50;;;;;;;23.94;32.24;99608.69;107510;1253;60656;-40
2023/05/31 09:11:40;;;;;;;3.90;2.30;;;;;;;24.00;31.94;99606.98;107413;1253;60528;-39
2023/05/31 09:14:11;;;;;;;3.50;2.10;;;;;;;24.06;32.13;99605.20;107318;1253;73838;-39
2023/05/31 09:16:38;;;;;;;5.20;2.50;;;;;;;24.12;31.48;99601.46;107402;1253;66618;-40
2023/05/31 09:19:06;;;;;;;6.70;2.50;;;;;;;24.16;32.13;99596.99;107511;1253;73251;-40
2023/05/31 09:21:40;;;;;;;6.20;2.60;;;;;;;24.23;32.38;99596.45;107506;1253;60282;-40
2023/05/31 09:24:10;;;;;;;4.70;2.30;;;;;;;24.33;31.61;99599.20;107417;1258;60306;-40
2023/05/31 09:26:50;;;;;;;5.30;2.30;;;;;;;24.37;31.82;99601.77;107412;1253;73859;-40
2023/05/31 09:29:19;;;;;;;3.70;2.30;;;;;;;24.28;30.94;99596.38;107346;1253;67572;-40
2023/05/31 09:31:47;;;;;;;5.40;2.30;;;;;;;24.07;31.02;99592.84;107430;1253;72751;-40
2023/05/31 09:34:29;;;;;;;5.30;2.60;;;;;;;23.88;32.23;99598.68;107423;1253;60416;-40
2023/05/31 09:37:00;;;;;;;5.60;2.40;;;;;;;23.76;31.87;99602.03;107554;1253;60531;-40
2023/05/31 09:39:27;;;;;;;5.60;2.30;;;;;;;23.74;31.59;99600.83;107515;1253;73844;-40
2023/05/31 09:41:55;;;;;;;5.10;2.30;;;;;;;23.75;30.92;99590.54;107387;1258;66909;-40
2023/05/31 09:44:27;;;;;;;5.50;2.40;;;;;;;23.79;31.15;99584.22;107345;1253;72712;-40
2023/05/31 09:46:55;;;;;;;6.60;2.50;;;;;;;23.92;31.16;99579.34;107463;1255;60417;-40
2023/05/31 09:49:24;;;;;;;3.70;2.50;;;;;;;24.04;30.97;99584.55;107383;1253;60169;-40
2023/05/31 09:51:52;;;;;;;3.10;2.20;;;;;;;24.14;31.26;99582.59;107303;1254;73877;-40
2023/05/31 09:54:25;;;;;;;4.10;2.30;;;;;;;24.26;31.74;99586.85;107406;1256;65709;-40
2023/05/31 09:56:55;;;;;;;3.70;2.30;;;;;;;24.40;31.14;99582.29;107411;1258;71421;-40
2023/05/31 09:59:22;;;;;;;3.90;2.20;;;;;;;24.49;30.73;99584.02;107390;1253;60419;-39
2023/05/31 10:01:50;;;;;;;6.70;2.60;;;;;;;24.58;29.41;99579.37;107485;1253;60431;-39
2023/05/31 10:04:18;;;;;;;3.70;2.20;;;;;;;24.61;29.56;99581.70;107395;1253;72695;-39
2023/05/31 10:06:46;;;;;;;4.00;2.30;;;;;;;24.66;28.57;99584.14;107185;1256;226207;-39
2023/05/31 10:11:00;;;;;;;4.00;2.30;;;;;;;24.74;28.69;99577.61;104182;1292;601175;-40
2023/05/31 10:13:29;;;;;;;3.30;2.20;;;;;;;24.79;28.95;99577.29;106614;1266;59276;-40
2023/05/31 10:16:07;;;;;;;4.40;2.40;;;;;;;24.90;28.78;99576.43;106647;1267;59632;-40
2023/05/31 10:18:40;;;;;;;3.10;2.10;;;;;;;25.02;28.47;99578.94;106654;1266;72280;-40
2023/05/31 10:21:20;;;;;;;3.10;2.10;;;;;;;25.15;28.44;99578.77;106689;1266;66325;-40
2023/05/31 10:23:56;;;;;;;4.00;2.10;;;;;;;25.27;28.54;99575.95;106481;1270;203913;-40
2023/05/31 10:26:35;;;;;;;5.30;2.20;;;;;;;25.42;28.81;99574.86;106760;1266;60585;-40
2023/05/31 10:29:40;;;;;;;3.90;2.10;;;;;;;25.64;28.44;99574.69;106724;1265;60503;-41
2023/05/31 10:32:12;;;;;;;2.50;1.70;;;;;;;25.81;27.29;99580.85;106471;1271;72292;-40
2023/05/31 10:34:40;;;;;;;5.90;2.20;;;;;;;25.82;27.15;99587.64;106842;1261;67948;-40
2023/05/31 10:37:08;;;;;;;5.30;2.20;;;;;;;25.90;26.96;99580.89;106875;1263;72773;-40
2023/05/31 10:40:00;;;;;;;7.10;2.10;;;;;;;26.00;26.54;99576.27;106831;1263;60351;-40
2023/05/31 10:42:42;;;;;;;5.80;2.10;;;;;;;26.22;26.37;99574.05;106860;1260;60142;-40
2023/05/31 10:45:15;;;;;;;3.90;2.10;;;;;;;26.30;25.72;99575.83;106860;1263;73037;-40
2023/05/31 10:47:49;;;;;;;4.70;2.20;;;;;;;26.23;25.78;99572.42;106904;1263;67759;-40
2023/05/31 10:50:19;;;;;;;4.10;2.40;;;;;;;26.17;25.86;99571.77;106884;1266;72708;-41
2023/05/31 10:52:50;;;;;;;6.20;2.10;;;;;;;26.20;25.43;99570.87;106907;1263;59621;-40
2023/05/31 10:55:20;;;;;;;3.40;1.90;;;;;;;26.27;25.68;99573.42;107007;1264;59771;-41
2023/05/31 10:57:53;;;;;;;5.70;1.90;;;;;;;26.42;24.90;99572.98;106911;1260;73499;-40
2023/05/31 11:00:22;;;;;;;3.10;2.00;;;;;;;26.63;25.44;99572.45;107015;1265;66763;-40
2023/05/31 11:02:51;;;;;;;3.70;1.90;;;;;;;26.91;25.43;99578.24;106848;1263;72722;-40
2023/05/31 11:05:21;;;;;;;3.50;1.70;;;;;;;27.14;24.67;99571.86;106886;1261;60183;-40
2023/05/31 11:07:49;;;;;;;;;;;;;;;27.31;24.19;99567.21;106914;1264;60087;-40
2023/05/31 11:10:24;;;;;;;3.40;1.80;;;;;;;27.40;24.23;99573.71;106872;1262;72428;-40
2023/05/31 11:12:52;;;;;;;5.80;2.10;;;;;;;27.43;23.38;99571.77;106858;1263;66743;-40
2023/05/31 11:15:19;;;;;;;3.00;1.90;;;;;;;27.37;23.30;99563.14;106828;1263;72819;-40
2023/05/31 11:17:56;;;;;;;3.80;1.90;;;;;;;27.31;23.33;99567.61;106861;1264;59627;-41
2023/05/31 11:20:26;;;;;;;5.50;2.30;;;;;;;27.16;22.69;99561.34;106856;1263;61573;-41
2023/05/31 11:23:18;;;;;;;2.70;1.70;;;;;;;26.87;23.14;99561.09;106888;1263;73082;-41
2023/05/31 11:26:07;;;;;;;4.50;2.30;;;;;;;26.55;23.07;99560.72;106886;1263;67933;-42
2023/05/31 11:29:01;;;;;;;7.30;2.40;;;;;;;26.47;24.05;99556.88;106863;1263;72728;-41
2023/05/31 11:31:48;;;;;;;3.30;1.90;;;;;;;26.71;24.19;99559.39;106857;1263;59617;-41
2023/05/31 11:34:29;;;;;;;2.70;1.70;;;;;;;27.09;23.82;99568.52;106869;1266;60028;-41
2023/05/31 11:36:58;;;;;;;5.70;1.90;;;;;;;27.46;23.64;99560.71;106857;1266;73033;-40
2023/05/31 11:39:26;;;;;;;3.10;2.00;;;;;;;27.80;22.96;99553.59;106895;1266;68067;-40